• Join FlightAware (Why Join?)
  • Login
  • US Flag 
12:45AM EDT


 

Airport Tracker/Info


-or-


 

Live Flight TrackerFlight Track Log ✈ EJA646 ✈ 21-Apr-2013 ✈ MYER / RSD - KILM

Flight Track Log - Related Links

Times and Time Zones

All times are in EDT time to prevent confusion due to time zone crossing. See the EJA646 flight status page for this flight to view local times or setup timezone preferences in your user account.

Time Position Orientation Groundspeed Altitude Reporting Facility
EDT Latitude Longitude Course Direction KTS MPH feet Rate Location/Type
10:17AM 24.9075 -76.5333 285° West 410 472 12,500  Level Miami Center
10:18AM 24.9014 -76.6367 266° West 374 430 12,800 720 Climbing Miami Center
10:19AM 24.9683 -76.7097 315° West 308 354 14,000 1,560 Climbing Miami Center
10:20AM 25.0561 -76.7486 338° Northwest 306 352 16,000 1,920 Climbing Miami Center
10:21AM 24.9038 -76.8844 283° West  Level FlightAware Approximate
10:21AM 25.1461 -76.7853 340° North 316 364 17,900  Level Miami Center
10:22AM 24.9289 -77.0011 283° West  Level FlightAware Approximate
10:22AM 25.2339 -76.8219 339° North 326 375 19,500  Level Miami Center
10:23AM 24.9544 -77.1176 285° West  Level FlightAware Approximate
10:23AM 25.3258 -76.8564 341° North 340 391 21,100  Level Miami Center
10:24AM 25.4178 -76.8794 347° North 340 391 22,600 1,500 Climbing Miami Center
10:25AM 25.5075 -76.9047 346° North 340 391 24,100 1,560 Climbing Miami Center
10:26AM 25.5953 -76.9303 345° North 335 386 25,800 1,800 Climbing Miami Center
10:27AM 25.6831 -76.9533 347° North 330 380 27,700 1,800 Climbing Miami Center
10:28AM 25.7708 -76.9786 345° North 320 368 29,500 1,500 Climbing Miami Center
10:29AM 25.8608 -77.0019 347° North 320 368 30,700 1,020 Climbing Miami Center
10:30AM 25.9569 -77.0275 347° North 334 384 31,600 960 Climbing Miami Center
10:31AM 26.0592 -77.0578 345° North 356 410 32,700 960 Climbing Miami Center
10:32AM 26.1636 -77.0856 347° North 368 423 33,600 900 Climbing Miami Center
10:33AM 26.2681 -77.1136 346° North 375 432 34,600 960 Climbing Miami Center
10:34AM 26.3703 -77.1439 345° North 375 432 35,600 960 Climbing Miami Center
10:35AM 26.4728 -77.1744 345° North 375 432 36,600 960 Climbing Miami Center
10:36AM 26.5750 -77.2003 347° North 375 432 37,600 960 Climbing Miami Center
10:37AM 26.6731 -77.2308 344° North 375 432 38,600 960 Climbing Miami Center
10:38AM 26.7692 -77.2567 347° North 370 426 39,600 840 Climbing Miami Center
10:39AM 26.8631 -77.2825 346° North 357 411 40,300 600 Climbing Miami Center
10:40AM 26.9592 -77.3039 349° North 351 404 40,800 300 Climbing Miami Center
10:41AM 27.0572 -77.3417 341° North 356 410 41,000 60 Climbing Miami Center
10:42AM 27.1594 -77.3606 351° North 362 417 41,000  Level Miami Center
10:43AM 27.2658 -77.3939 344° North 377 434 41,000  Level Miami Center
10:44AM 27.3764 -77.4200 348° North 388 447 41,000  Level Miami Center
10:45AM 27.4703 -77.4464 346° North 394 453 41,000  Level Miami Center
10:46AM 27.5914 -77.4844 344° North 399 459 41,000  Level Miami Center
10:47AM 27.6853 -77.5131 345° North 392 451 41,000  Level Miami Center
10:48AM 27.7894 -77.5419 346° North 380 437 41,000  Level Miami Center
10:49AM 27.8936 -77.5731 345° North 385 443 41,000 -60 Level Miami Center
10:50AM 28.0042 -77.6019 347° North 382 440 40,900  Descending Miami Center
10:51AM 28.1064 -77.6308 346° North 394 453 41,000  Climbing Miami Center
10:52AM 28.2211 -77.6411 355° North 413 475 41,000  Level Miami Center
10:53AM 28.3256 -77.6442 359° North 403 464 41,000  Level Miami Center
10:54AM 28.4550 -77.6522 357° North 402 463 41,000  Level Miami Center
10:55AM 28.5717 -77.6575 358° North 399 459 41,000  Level Miami Center
10:56AM 28.6844 -77.6631 358° North 409 471 41,000  Level Miami Center
10:57AM 28.7950 -77.6686 357° North 402 463 41,000  Level Miami Center
10:58AM 28.9078 -77.6742 358° North 393 452 41,000  Level Miami Center
10:59AM 29.0267 -77.6847 356° North 408 470 41,000  Level Miami Center
11:00AM 29.1350 -77.6856 360° North 407 468 41,000  Level Miami Center
11:01AM 29.2497 -77.6933 357° North 402 463 41,000  Level Miami Center
11:02AM 29.3625 -77.7014 356° North 402 463 41,000  Level Miami Center
11:04AM 29.5747 -77.7067 359° North 403 464 41,000  Level Jacksonville Center
11:05AM 29.6897 -77.7125 357° North 408 470 41,000  Level Jacksonville Center
11:06AM 29.7919 -77.7167 358° North 415 478 41,000  Level Jacksonville Center
11:07AM 29.9069 -77.7225 357° North 406 467 41,000  Level Jacksonville Center
11:08AM 30.0200 -77.7258 359° North 414 476 41,000  Level Jacksonville Center
11:09AM 30.1392 -77.7364 356° North 414 476 41,000  Level Jacksonville Center
11:10AM 30.2664 -77.7344 North 403 464 41,000  Level Jacksonville Center
11:11AM 30.3814 -77.7403 357° North 423 487 41,000  Level Jacksonville Center
11:12AM 30.4986 -77.7458 358° North 424 488 41,000  Level Jacksonville Center
11:13AM 30.6117 -77.7567 355° North 424 488 41,000  Level Jacksonville Center
11:14AM 30.7267 -77.7625 358° North 419 482 41,000  Level Jacksonville Center
11:15AM 30.8442 -77.7731 356° North 419 482 41,000  Level Jacksonville Center
11:16AM 30.9592 -77.7767 358° North 413 475 41,000  Level Jacksonville Center
11:17AM 31.0744 -77.7897 354° North 413 475 41,000  Level Jacksonville Center
11:18AM 31.1917 -77.7981 357° North 413 475 41,000  Level Jacksonville Center
11:19AM 31.3086 -77.7989 360° North 413 475 41,000  Level Jacksonville Center
11:20AM 31.4258 -77.8094 356° North 413 475 41,000  Level Jacksonville Center
11:21AM 31.5428 -77.8081 North 418 481 41,000  Level Jacksonville Center
11:22AM 31.6578 -77.8139 358° North 418 481 41,000  Level Jacksonville Center
11:23AM 31.7750 -77.8222 357° North 418 481 41,000  Level Jacksonville Center
11:24AM 31.8881 -77.8306 356° North 418 481 41,000  Level Jacksonville Center
11:25AM 32.0053 -77.8389 357° North 418 481 41,000  Level Jacksonville Center
11:26AM 32.1222 -77.8447 358° North 418 481 41,000  Level Jacksonville Center
11:27AM 32.2392 -77.8481 359° North 424 488 41,000  Level Jacksonville Center
11:28AM 32.3547 -77.8614 354° North 424 488 41,000  Level Jacksonville Center
11:29AM 32.4717 -77.8622 360° North 424 488 41,000  Level Jacksonville Center
11:30AM 32.5889 -77.8731 356° North 424 488 41,000 -60 Level Jacksonville Center
11:31AM 32.7058 -77.8764 359° North 424 488 40,900 -600 Descending Jacksonville Center
11:32AM 32.8253 -77.8869 356° North 424 488 39,900 -1,260 Descending Jacksonville Center
11:33AM 32.9464 -77.8925 358° North 429 494 38,400 -1,860 Descending Jacksonville Center
11:34AM 33.0700 -77.9006 357° North 434 499 36,200 -2,220 Descending Jacksonville Center
11:35AM 33.1911 -77.9061 358° North 434 499 34,000 -2,220 Descending Jacksonville Center
11:36AM 33.3125 -77.9169 356° North 434 499 31,800 -2,340 Descending Jacksonville Center
11:37AM 33.4339 -77.9225 358° North 434 499 29,400 -2,400 Descending Jacksonville Center
11:38AM 33.5553 -77.9306 357° North 434 499 27,000 -2,160 Descending Jacksonville Center
11:39AM 33.6147 -77.9356 356° North 436 502 26,100 -2,460 Descending Washington Center
11:40AM 33.7233 -77.9414 357° North 436 502 23,300 -2,940 Descending Washington Center
11:41AM 33.8356 -77.9494 357° North 424 488 20,300 -3,060 Descending Washington Center
11:42AM 33.9461 -77.9550 358° North 407 468 17,200 -3,360 Descending Washington Center
11:43AM 34.0544 -77.9581 359° North 379 436 13,600 -3,600 Descending Washington Center
11:44AM 34.1442 -77.9656 356° North 341 392 10,000 -3,300 Descending Washington Center
11:45AM 34.2011 -78.0325 316° Northwest 280 322 7,000 -2,820 Descending Washington Center
11:46AM 34.1956 -78.1103 265° West 207 238 4,500 -2,100 Descending Washington Center
11:47AM 34.1544 -78.0714 142° Southeast 37 43 2,900 -1,080 Descending Washington Center
11:48AM 34.1806 -78.0219 57° Northeast 65 75 2,400 -600 Descending Washington Center
11:49AM 34.2064 -77.9875 48° Northeast 107 123 1,700 -720 Descending Washington Center